Time;durP1;ratioP1;P1;durP2;ratioP2;P2;SDS_P1;SDS_P2;PMS_P1;PMS_P2;Temp;Humidity;BMP_temperature;BMP_pressure;BME280_temperature;BME280_humidity;BME280_pressure;Samples;Min_cycle;Max_cycle;Signal;HPM_P1;HPM_P2
2021/05/20 00:00:16;;;;;;;21.73;15.60;;;10.10;99.90;;;;;;5075019;28;20431;-37
2021/05/20 00:02:43;;;;;;;20.00;15.77;;;10.20;99.90;;;;;;5089033;28;20429;-37
2021/05/20 00:05:10;;;;;;;18.10;15.70;;;10.40;99.90;;;;;;5083525;28;20414;-37
2021/05/20 00:07:36;;;;;;;19.00;14.27;;;10.20;99.90;;;;;;5058603;28;20466;-37
2021/05/20 00:10:04;;;;;;;18.57;14.93;;;10.20;99.90;;;;;;5066984;28;20931;-36
2021/05/20 00:12:30;;;;;;;19.03;15.57;;;10.40;99.90;;;;;;5068560;28;20427;-37
2021/05/20 00:14:55;;;;;;;17.40;15.40;;;10.20;99.90;;;;;;5069615;28;20778;-37
2021/05/20 00:17:21;;;;;;;17.73;15.10;;;10.10;99.90;;;;;;5087250;28;20188;-37
2021/05/20 00:19:47;;;;;;;16.97;14.70;;;10.10;99.90;;;;;;5087186;28;20192;-37
2021/05/20 00:22:12;;;;;;;18.13;14.67;;;10.10;99.90;;;;;;5061068;28;20280;-38
2021/05/20 00:24:38;;;;;;;17.23;15.13;;;10.10;99.90;;;;;;5067510;28;20185;-37
2021/05/20 00:27:04;;;;;;;20.80;16.90;;;10.30;99.90;;;;;;5067998;28;20193;-37
2021/05/20 00:29:30;;;;;;;17.23;14.40;;;10.10;99.90;;;;;;5067611;28;20209;-37
2021/05/20 00:31:55;;;;;;;19.50;15.97;;;10.10;99.90;;;;;;5067673;28;20500;-38
2021/05/20 00:34:21;;;;;;;16.43;14.00;;;10.10;99.90;;;;;;5067861;28;20459;-37
2021/05/20 00:36:47;;;;;;;19.30;15.83;;;10.00;99.90;;;;;;5061627;28;20197;-37
2021/05/20 00:39:12;;;;;;;18.10;15.07;;;10.10;99.90;;;;;;5068578;28;20272;-37
2021/05/20 00:41:38;;;;;;;20.30;16.00;;;10.10;99.90;;;;;;5078368;28;20283;-37
2021/05/20 00:44:04;;;;;;;18.73;15.53;;;10.00;99.90;;;;;;5086944;28;20193;-37
2021/05/20 00:46:30;;;;;;;17.77;14.60;;;9.90;99.90;;;;;;5088109;28;20434;-37
2021/05/20 00:48:55;;;;;;;19.90;15.13;;;10.00;99.90;;;;;;5086693;28;20592;-37
2021/05/20 00:51:21;;;;;;;19.80;15.70;;;9.90;99.90;;;;;;5075080;28;20200;-37
2021/05/20 00:53:48;;;;;;;34.37;16.20;;;9.90;99.90;;;;;;5063240;28;20188;-37
2021/05/20 00:56:15;;;;;;;18.30;15.90;;;10.00;99.90;;;;;;5068111;28;20213;-37
2021/05/20 00:58:44;;;;;;;20.47;17.03;;;9.90;99.90;;;;;;5067354;28;20415;-37
2021/05/20 01:01:10;;;;;;;24.73;16.90;;;9.90;99.90;;;;;;5066716;28;20443;-37
2021/05/20 01:03:36;;;;;;;18.03;15.20;;;9.90;99.90;;;;;;5067863;28;20435;-37
2021/05/20 01:06:02;;;;;;;20.23;15.70;;;9.80;99.90;;;;;;5065577;28;20488;-37
2021/05/20 01:08:27;;;;;;;20.27;17.17;;;9.80;99.90;;;;;;5060152;28;20687;-37
2021/05/20 01:10:53;;;;;;;21.50;18.17;;;9.70;99.90;;;;;;5070484;28;20205;-37
2021/05/20 01:13:21;;;;;;;19.40;16.30;;;9.90;99.90;;;;;;5080569;28;20193;-37
2021/05/20 01:15:47;;;;;;;21.83;17.30;;;9.80;99.90;;;;;;5077925;28;20867;-37
2021/05/20 01:18:13;;;;;;;19.97;17.40;;;9.80;99.90;;;;;;5087671;28;20562;-37
2021/05/20 01:20:41;;;;;;;23.70;17.87;;;10.10;99.90;;;;;;5087648;28;20234;-37
2021/05/20 01:23:07;;;;;;;20.63;17.67;;;9.90;99.90;;;;;;5058618;28;20204;-37
2021/05/20 01:25:34;;;;;;;23.80;19.40;;;9.90;99.90;;;;;;5067517;28;20451;-37
2021/05/20 01:28:04;;;;;;;20.97;18.67;;;9.80;99.90;;;;;;5067455;28;20537;-37
2021/05/20 01:30:36;;;;;;;21.60;17.43;;;9.80;99.90;;;;;;5065841;28;21273;-37
2021/05/20 01:33:02;;;;;;;24.50;18.70;;;10.00;99.90;;;;;;5067361;28;20991;-36
2021/05/20 01:35:27;;;;;;;22.40;18.40;;;9.90;99.90;;;;;;5065850;28;20423;-37
2021/05/20 01:38:51;;;;;;;24.73;18.73;;;10.00;99.90;;;;;;5057123;28;20458;-37
2021/05/20 01:41:00;;;;;;;23.40;19.83;;;10.10;99.90;;;;;;5063147;28;20200;-37
2021/05/20 01:43:27;;;;;;;22.30;19.03;;;10.20;99.90;;;;;;5067228;28;20441;-37
2021/05/20 01:46:00;;;;;;;22.53;18.60;;;10.10;99.90;;;;;;5066634;28;20436;-37
2021/05/20 01:48:44;;;;;;;25.87;20.53;;;10.20;99.90;;;;;;5067069;28;20467;-37
2021/05/20 01:51:13;;;;;;;27.67;19.53;;;10.20;99.90;;;;;;5066251;28;20422;-36
2021/05/20 01:53:47;;;;;;;21.80;18.50;;;10.20;99.90;;;;;;5061934;28;20477;-37
2021/05/20 01:56:18;;;;;;;25.10;19.97;;;10.30;99.90;;;;;;5062090;28;20426;-37
2021/05/20 01:58:45;;;;;;;25.03;20.57;;;10.30;99.90;;;;;;5079032;28;20563;-37
2021/05/20 02:01:11;;;;;;;24.63;20.40;;;10.40;99.90;;;;;;5084525;28;20492;-37
2021/05/20 02:03:37;;;;;;;25.63;22.13;;;10.50;99.90;;;;;;5087017;28;20422;-37
2021/05/20 02:06:04;;;;;;;23.10;19.93;;;10.40;99.90;;;;;;5087097;28;20626;-37
2021/05/20 02:08:34;;;;;;;24.63;20.77;;;10.40;99.90;;;;;;5053512;28;20477;-37
2021/05/20 02:11:01;;;;;;;26.40;21.77;;;10.40;99.90;;;;;;5065573;28;20420;-37
2021/05/20 02:13:27;;;;;;;30.57;22.30;;;10.50;99.90;;;;;;5062005;28;20435;-37
2021/05/20 02:15:53;;;;;;;34.37;24.07;;;10.40;99.90;;;;;;5061828;28;20420;-37
2021/05/20 02:18:19;;;;;;;41.17;25.90;;;10.50;99.90;;;;;;5084380;28;20431;-37
2021/05/20 02:20:45;;;;;;;40.07;26.67;;;10.50;99.90;;;;;;5085172;28;20257;-37
2021/05/20 02:23:13;;;;;;;42.40;27.40;;;10.50;99.90;;;;;;5063068;28;20789;-37
2021/05/20 02:25:39;;;;;;;45.93;26.80;;;10.50;99.90;;;;;;5066011;28;20439;-37
2021/05/20 02:28:05;;;;;;;37.20;26.80;;;10.60;99.90;;;;;;5083894;28;20466;-37
2021/05/20 02:30:31;;;;;;;47.07;29.37;;;10.50;99.90;;;;;;5082108;28;20442;-37
2021/05/20 02:32:57;;;;;;;61.27;33.67;;;10.50;99.90;;;;;;5084288;28;20191;-37
2021/05/20 02:35:24;;;;;;;60.43;33.20;;;10.60;99.90;;;;;;5086638;28;20437;-36
2021/05/20 02:37:50;;;;;;;62.33;35.33;;;10.50;99.90;;;;;;5067943;28;20510;-37
2021/05/20 02:40:16;;;;;;;69.13;35.83;;;10.50;99.90;;;;;;5061015;28;20653;-37
2021/05/20 02:42:43;;;;;;;62.83;35.03;;;10.60;99.90;;;;;;5073804;28;20184;-37
2021/05/20 02:45:12;;;;;;;59.87;33.90;;;10.50;99.90;;;;;;5086177;28;20446;-37
2021/05/20 02:47:37;;;;;;;61.60;36.60;;;10.60;99.90;;;;;;5084660;28;20481;-37
2021/05/20 02:50:04;;;;;;;56.03;34.73;;;10.60;99.90;;;;;;5085813;28;20462;-37
2021/05/20 02:52:30;;;;;;;62.07;33.80;;;10.60;99.90;;;;;;5076321;28;20189;-37
2021/05/20 02:54:57;;;;;;;63.33;37.83;;;10.50;99.90;;;;;;5061268;28;20809;-37
2021/05/20 02:57:23;;;;;;;61.47;32.90;;;10.60;99.90;;;;;;5066583;28;20250;-37
2021/05/20 02:59:48;;;;;;;56.33;34.00;;;10.60;99.90;;;;;;5065565;28;20923;-37
2021/05/20 03:02:14;;;;;;;58.77;34.63;;;10.60;99.90;;;;;;5066550;28;21370;-37
2021/05/20 03:04:40;;;;;;;57.93;34.40;;;10.70;99.90;;;;;;5065964;28;20173;-37
2021/05/20 03:07:07;;;;;;;60.13;32.77;;;10.70;99.90;;;;;;5065841;28;20445;-37
2021/05/20 03:09:33;;;;;;;58.63;33.07;;;10.70;99.90;;;;;;5061981;28;20304;-37
2021/05/20 03:12:00;;;;;;;61.20;35.03;;;10.60;99.90;;;;;;5065826;28;20517;-37
2021/05/20 03:14:27;;;;;;;58.07;33.60;;;10.70;99.90;;;;;;5065913;28;20452;-37
2021/05/20 03:16:53;;;;;;;55.53;32.30;;;10.60;99.90;;;;;;5081841;28;20426;-37
2021/05/20 03:19:19;;;;;;;54.17;30.90;;;10.60;99.90;;;;;;5085403;28;20468;-37
2021/05/20 03:21:45;;;;;;;52.13;30.00;;;10.60;99.90;;;;;;5085926;28;20435;-37
2021/05/20 03:24:11;;;;;;;54.60;33.87;;;10.70;99.90;;;;;;5061556;28;20786;-38
2021/05/20 03:26:37;;;;;;;49.67;32.90;;;10.70;99.90;;;;;;5061900;28;20895;-37
2021/05/20 03:29:04;;;;;;;55.27;33.47;;;10.50;99.90;;;;;;5065507;28;20471;-37
2021/05/20 03:31:31;;;;;;;57.67;33.30;;;10.60;99.90;;;;;;5065386;28;20681;-37
2021/05/20 03:33:56;;;;;;;54.80;31.77;;;10.50;99.90;;;;;;5065909;28;20462;-37
2021/05/20 03:36:22;;;;;;;49.33;30.63;;;10.60;99.90;;;;;;5065694;28;20455;-37
2021/05/20 03:38:48;;;;;;;48.67;30.57;;;10.60;99.90;;;;;;5054040;28;20450;-37
2021/05/20 03:41:13;;;;;;;51.20;29.97;;;10.50;99.90;;;;;;5060447;28;20205;-37
2021/05/20 03:43:39;;;;;;;49.90;30.87;;;10.60;99.90;;;;;;5064706;28;20177;-37
2021/05/20 03:46:06;;;;;;;50.03;31.40;;;10.50;99.90;;;;;;5065441;28;20217;-37
2021/05/20 03:48:32;;;;;;;52.13;30.60;;;10.50;99.90;;;;;;5065712;28;20594;-37
2021/05/20 03:50:59;;;;;;;58.07;32.53;;;10.50;99.90;;;;;;5062975;28;20963;-37
2021/05/20 03:53:31;;;;;;;54.53;31.93;;;10.70;99.90;;;;;;5058359;28;20999;-37
2021/05/20 03:56:00;;;;;;;58.33;33.63;;;10.70;99.90;;;;;;5062389;28;20415;-37
2021/05/20 03:58:27;;;;;;;60.10;35.27;;;10.60;99.90;;;;;;5083191;28;20410;-37
2021/05/20 04:00:53;;;;;;;54.93;31.83;;;10.60;99.90;;;;;;5088510;28;20747;-37
2021/05/20 04:03:23;;;;;;;59.87;37.07;;;10.60;99.90;;;;;;5083866;28;20426;-37
2021/05/20 04:06:07;;;;;;;56.47;32.87;;;10.50;99.90;;;;;;5089458;28;20204;-37
2021/05/20 04:08:36;;;;;;;58.37;32.00;;;10.50;99.90;;;;;;5075511;28;20471;-37
2021/05/20 04:11:03;;;;;;;55.10;32.10;;;10.60;99.90;;;;;;5062143;28;20507;-37
2021/05/20 04:13:31;;;;;;;56.97;32.87;;;10.50;99.90;;;;;;5068541;28;20415;-37
2021/05/20 04:15:58;;;;;;;57.90;33.03;;;10.50;99.90;;;;;;5080472;28;20441;-37
2021/05/20 04:18:23;;;;;;;59.60;32.73;;;10.50;99.90;;;;;;5088286;28;20787;-37
2021/05/20 04:20:50;;;;;;;58.80;34.53;;;10.50;99.90;;;;;;5070627;28;20430;-37
2021/05/20 04:23:16;;;;;;;56.80;33.90;;;10.40;99.90;;;;;;5078602;28;20209;-37
2021/05/20 04:25:42;;;;;;;52.90;32.00;;;10.60;99.90;;;;;;5063177;28;20940;-37
2021/05/20 04:28:07;;;;;;;51.90;31.53;;;10.40;99.90;;;;;;5068159;28;20451;-37
2021/05/20 04:30:34;;;;;;;50.30;30.00;;;10.50;99.90;;;;;;5067740;28;20481;-37
2021/05/20 04:32:59;;;;;;;49.20;29.10;;;10.50;99.90;;;;;;5068343;28;20526;-37
2021/05/20 04:35:25;;;;;;;48.70;29.90;;;10.40;99.90;;;;;;5068685;28;20419;-37
2021/05/20 04:37:50;;;;;;;47.27;30.50;;;10.60;99.90;;;;;;5063488;28;20191;-37
2021/05/20 04:40:16;;;;;;;46.37;29.33;;;10.70;99.90;;;;;;5062856;28;20220;-37
2021/05/20 04:42:42;;;;;;;47.37;28.47;;;10.50;99.90;;;;;;5068239;28;20189;-37
2021/05/20 04:45:08;;;;;;;48.07;28.97;;;10.50;99.90;;;;;;5068038;28;20189;-37
2021/05/20 04:47:34;;;;;;;46.73;29.23;;;10.50;99.90;;;;;;5080566;28;20196;-37
2021/05/20 04:49:59;;;;;;;43.00;29.30;;;10.60;99.90;;;;;;5087873;28;20479;-38
2021/05/20 04:52:25;;;;;;;44.73;29.00;;;10.60;99.90;;;;;;5086996;28;20606;-38
2021/05/20 04:54:51;;;;;;;45.20;27.33;;;10.60;99.90;;;;;;5062840;28;20557;-37
2021/05/20 04:57:16;;;;;;;44.87;28.40;;;10.70;99.90;;;;;;5064400;28;20244;-37
2021/05/20 04:59:42;;;;;;;44.00;26.63;;;11.00;99.90;;;;;;5077459;28;20193;-37
2021/05/20 05:02:08;;;;;;;43.10;28.40;;;10.80;99.90;;;;;;5073290;28;20707;-37
2021/05/20 05:04:33;;;;;;;51.57;27.97;;;10.80;99.90;;;;;;5075528;28;20188;-37
2021/05/20 05:06:59;;;;;;;46.40;29.17;;;10.80;99.90;;;;;;5076957;28;20289;-37
2021/05/20 05:09:25;;;;;;;42.97;27.83;;;10.70;99.90;;;;;;5056492;28;20644;-37
2021/05/20 05:11:50;;;;;;;48.40;30.30;;;10.70;99.90;;;;;;5067430;28;20704;-37
2021/05/20 05:14:16;;;;;;;54.27;32.40;;;10.90;99.90;;;;;;5067650;28;20184;-38
2021/05/20 05:16:42;;;;;;;48.10;29.37;;;10.70;99.90;;;;;;5072918;28;20231;-38
2021/05/20 05:19:08;;;;;;;50.70;28.97;;;10.70;99.90;;;;;;5077566;28;20180;-38
2021/05/20 05:21:33;;;;;;;44.57;27.77;;;10.60;99.90;;;;;;5076808;28;20687;-38
2021/05/20 05:23:59;;;;;;;43.53;26.17;;;10.80;99.90;;;;;;5068531;28;20178;-37
2021/05/20 05:26:24;;;;;;;40.27;27.40;;;10.70;99.90;;;;;;5079307;28;20223;-37
2021/05/20 05:28:50;;;;;;;42.87;27.17;;;10.60;99.90;;;;;;5074247;28;20299;-38
2021/05/20 05:31:21;;;;;;;40.83;26.50;;;10.60;99.90;;;;;;5069493;28;20598;-38
2021/05/20 05:33:46;;;;;;;39.97;26.57;;;10.80;99.90;;;;;;5070318;28;20203;-37
2021/05/20 05:36:12;;;;;;;40.80;28.10;;;10.70;99.90;;;;;;5075010;28;21073;-38
2021/05/20 05:38:38;;;;;;;42.90;26.13;;;10.80;99.90;;;;;;5074581;28;20280;-37
2021/05/20 05:41:04;;;;;;;39.83;26.83;;;11.00;99.90;;;;;;5056000;28;20185;-37
2021/05/20 05:43:30;;;;;;;45.97;27.60;;;10.90;99.90;;;;;;5065440;28;20428;-38
2021/05/20 05:45:55;;;;;;;39.10;26.40;;;10.90;99.90;;;;;;5067118;28;20403;-38
2021/05/20 05:48:21;;;;;;;39.80;26.10;;;10.80;99.90;;;;;;5066870;28;20213;-38
2021/05/20 05:50:48;;;;;;;39.77;26.40;;;11.00;99.90;;;;;;5065713;28;20181;-37
2021/05/20 05:53:14;;;;;;;47.20;29.90;;;10.90;99.90;;;;;;5066420;28;20181;-37
2021/05/20 05:55:40;;;;;;;46.63;29.77;;;10.90;99.90;;;;;;5055998;28;20442;-38
2021/05/20 05:58:05;;;;;;;45.63;27.93;;;10.90;99.90;;;;;;5066195;28;20189;-38
2021/05/20 06:00:31;;;;;;;44.00;28.10;;;10.90;99.90;;;;;;5066418;28;20215;-38
2021/05/20 06:02:58;;;;;;;47.93;31.87;;;10.90;99.90;;;;;;5066802;28;20275;-38
2021/05/20 06:05:23;;;;;;;44.10;27.90;;;10.70;99.90;;;;;;5065532;28;20506;-38
2021/05/20 06:07:49;;;;;;;51.20;30.50;;;10.90;99.90;;;;;;5061786;28;20558;-38
2021/05/20 06:10:15;;;;;;;44.57;28.27;;;11.00;99.90;;;;;;5071187;28;20184;-37
2021/05/20 06:12:41;;;;;;;44.33;28.20;;;11.00;99.90;;;;;;5072822;28;20177;-37
2021/05/20 06:15:07;;;;;;;50.83;28.40;;;11.10;99.90;;;;;;5066133;28;20176;-38
2021/05/20 06:17:36;;;;;;;51.70;29.00;;;10.90;99.90;;;;;;5066283;28;20423;-38
2021/05/20 06:20:03;;;;;;;51.30;30.20;;;11.00;99.90;;;;;;5066084;28;20776;-37
2021/05/20 06:22:29;;;;;;;52.47;28.80;;;11.10;99.90;;;;;;5070043;28;20914;-37
2021/05/20 06:24:54;;;;;;;49.07;28.30;;;11.20;99.90;;;;;;5065917;28;20432;-37
2021/05/20 06:27:20;;;;;;;46.20;27.23;;;11.30;99.90;;;;;;5062772;28;20180;-38
2021/05/20 06:29:46;;;;;;;48.90;29.80;;;11.30;99.90;;;;;;5076957;28;20216;-38
2021/05/20 06:32:11;;;;;;;51.10;29.07;;;11.30;99.90;;;;;;5086462;28;20414;-38
2021/05/20 06:34:37;;;;;;;62.23;32.63;;;11.30;99.90;;;;;;5074183;28;20173;-37
2021/05/20 06:37:03;;;;;;;57.83;31.17;;;11.30;99.90;;;;;;5086718;28;20180;-38
2021/05/20 06:39:29;;;;;;;59.30;31.00;;;11.40;99.90;;;;;;5079615;28;20194;-38
2021/05/20 06:41:56;;;;;;;53.93;30.80;;;11.30;99.90;;;;;;5058325;28;20419;-38
2021/05/20 06:44:24;;;;;;;55.93;30.13;;;11.20;99.90;;;;;;5066108;28;20444;-37
2021/05/20 06:46:50;;;;;;;55.03;32.20;;;11.20;99.90;;;;;;5065883;28;20415;-38
2021/05/20 06:49:16;;;;;;;52.30;30.90;;;11.40;99.90;;;;;;5065590;28;21215;-38
2021/05/20 06:51:42;;;;;;;50.77;30.80;;;11.30;99.90;;;;;;5064491;28;20271;-37
2021/05/20 06:54:08;;;;;;;50.73;28.97;;;11.40;99.90;;;;;;5066559;28;20185;-37
2021/05/20 06:56:33;;;;;;;50.73;30.40;;;11.50;99.90;;;;;;5057121;28;20200;-37
2021/05/20 07:01:47;;;;;;;58.20;31.10;;;11.60;99.90;;;;;;5066198;28;20795;-38
2021/05/20 07:04:14;;;;;;;53.90;31.13;;;11.70;99.90;;;;;;5066805;28;20427;-37
2021/05/20 07:06:40;;;;;;;55.87;33.13;;;11.70;99.90;;;;;;5065895;28;20492;-38
2021/05/20 07:09:06;;;;;;;51.43;31.20;;;11.80;99.90;;;;;;5065358;28;21058;-37
2021/05/20 07:11:32;;;;;;;46.97;30.97;;;11.80;99.90;;;;;;5059168;28;20486;-38
2021/05/20 07:13:58;;;;;;;47.33;30.73;;;11.80;99.90;;;;;;5065780;28;20220;-37
2021/05/20 07:16:24;;;;;;;47.10;28.90;;;11.90;99.90;;;;;;5080800;28;20195;-37
2021/05/20 07:18:50;;;;;;;52.33;32.37;;;11.90;99.90;;;;;;5070651;28;20419;-38
2021/05/20 07:21:16;;;;;;;50.17;32.03;;;12.00;99.90;;;;;;5083462;28;20933;-38
2021/05/20 07:23:41;;;;;;;42.73;28.17;;;12.10;99.90;;;;;;5085808;28;20204;-38
2021/05/20 07:26:07;;;;;;;49.70;30.40;;;12.10;99.90;;;;;;5059923;28;20217;-38
2021/05/20 07:28:33;;;;;;;42.43;28.90;;;12.10;99.90;;;;;;5066468;28;20216;-37
2021/05/20 07:30:59;;;;;;;41.53;27.27;;;12.10;99.90;;;;;;5069144;28;20268;-37
2021/05/20 07:33:25;;;;;;;37.90;27.03;;;12.20;99.90;;;;;;5069541;28;20573;-37
2021/05/20 07:35:51;;;;;;;40.47;27.73;;;12.20;99.90;;;;;;5069408;28;20509;-37
2021/05/20 07:38:17;;;;;;;39.43;28.00;;;12.30;99.90;;;;;;5069388;28;21201;-37
2021/05/20 07:40:42;;;;;;;43.10;28.73;;;12.30;99.90;;;;;;5062604;28;20250;-38
2021/05/20 07:43:08;;;;;;;44.57;29.67;;;12.30;99.90;;;;;;5064037;28;20547;-38
2021/05/20 07:45:34;;;;;;;45.60;29.93;;;12.30;99.90;;;;;;5071398;28;20288;-38
2021/05/20 07:48:03;;;;;;;42.93;29.33;;;12.40;99.90;;;;;;5090825;28;20207;-38
2021/05/20 07:50:29;;;;;;;43.20;28.97;;;12.50;99.90;;;;;;5086215;28;20495;-38
2021/05/20 07:52:55;;;;;;;45.57;29.57;;;12.50;99.90;;;;;;5088245;28;20900;-38
2021/05/20 07:55:21;;;;;;;41.40;29.40;;;12.60;99.90;;;;;;5080726;28;20526;-38
2021/05/20 07:57:47;;;;;;;45.33;30.03;;;12.70;99.90;;;;;;5061049;28;20192;-39
2021/05/20 08:00:13;;;;;;;45.97;29.20;;;12.70;99.90;;;;;;5076145;28;20193;-38
2021/05/20 08:08:05;;;;;;;35.43;26.03;;;12.60;99.90;;;;;;5089364;28;20470;-39
2021/05/20 08:13:15;;;;;;;38.07;24.93;;;12.60;99.90;;;;;;5064375;28;20514;-38
2021/05/20 08:15:41;;;;;;;37.73;26.63;;;12.60;99.90;;;;;;5077390;28;20505;-39
2021/05/20 08:18:06;;;;;;;40.50;28.00;;;12.70;99.90;;;;;;5089459;28;20417;-38
2021/05/20 08:20:32;;;;;;;39.70;26.00;;;12.80;99.90;;;;;;5081412;28;20462;-38
2021/05/20 08:22:58;;;;;;;31.90;22.87;;;12.90;99.90;;;;;;5089222;28;20200;-38
2021/05/20 08:25:25;;;;;;;35.23;23.20;;;12.80;99.90;;;;;;5085505;28;20246;-39
2021/05/20 08:27:51;;;;;;;27.93;21.40;;;12.80;99.90;;;;;;5064274;28;20229;-39
2021/05/20 08:30:18;;;;;;;21.67;18.40;;;12.80;99.90;;;;;;5062929;28;20939;-38
2021/05/20 08:32:48;;;;;;;22.53;17.73;;;13.00;99.90;;;;;;5064852;28;20803;-38
2021/05/20 08:35:15;;;;;;;21.63;18.33;;;13.10;99.90;;;;;;5068608;28;20435;-38
2021/05/20 08:37:41;;;;;;;21.43;17.20;;;13.30;99.90;;;;;;5068481;28;20430;-38
2021/05/20 08:40:09;;;;;;;26.53;19.40;;;13.30;99.90;;;;;;5067808;28;20426;-38
2021/05/20 08:42:36;;;;;;;21.73;17.30;;;13.20;99.90;;;;;;5053052;28;20480;-38
2021/05/20 08:45:24;;;;;;;23.43;17.70;;;13.10;99.90;;;;;;5068364;28;20666;-38
2021/05/20 08:47:51;;;;;;;20.57;17.03;;;13.00;99.90;;;;;;5063858;28;20463;-38
2021/05/20 08:50:18;;;;;;;24.33;18.93;;;13.20;99.90;;;;;;5061114;28;20435;-38
2021/05/20 08:52:44;;;;;;;22.93;19.33;;;13.30;99.90;;;;;;5066893;28;20434;-38
2021/05/20 08:55:14;;;;;;;20.83;18.27;;;13.40;99.90;;;;;;5067898;28;20427;-38
2021/05/20 08:57:40;;;;;;;24.20;20.87;;;13.60;99.90;;;;;;5057043;28;20197;-38
2021/05/20 09:00:15;;;;;;;24.37;20.40;;;13.50;99.90;;;;;;5067260;28;20431;-38
2021/05/20 09:02:41;;;;;;;24.87;19.77;;;13.50;99.90;;;;;;5067880;28;20430;-38
2021/05/20 09:05:10;;;;;;;24.80;20.40;;;13.70;99.90;;;;;;5068406;28;20431;-38
2021/05/20 09:07:38;;;;;;;22.10;18.90;;;13.80;99.90;;;;;;5067819;28;20798;-39
2021/05/20 09:10:08;;;;;;;26.37;20.60;;;13.80;99.90;;;;;;5083282;28;20439;-38
2021/05/20 09:12:34;;;;;;;26.30;22.03;;;13.90;99.90;;;;;;5059183;28;20436;-38
2021/05/20 09:15:00;;;;;;;28.17;21.70;;;14.20;99.90;;;;;;5067459;28;20423;-39
2021/05/20 09:17:26;;;;;;;23.97;20.40;;;14.40;99.90;;;;;;5063171;28;20432;-38
2021/05/20 09:19:54;;;;;;;24.20;19.70;;;14.50;99.90;;;;;;5063971;28;20268;-38
2021/05/20 09:22:21;;;;;;;35.00;25.00;;;14.30;99.90;;;;;;5067519;28;20238;-39
2021/05/20 09:24:56;;;;;;;36.30;25.83;;;14.00;99.90;;;;;;5067407;28;20996;-39
2021/05/20 09:27:36;;;;;;;33.37;24.83;;;13.90;99.90;;;;;;5061789;28;20467;-38
2021/05/20 09:30:16;;;;;;;35.10;25.57;;;13.80;99.90;;;;;;5063427;28;20419;-38
2021/05/20 09:32:54;;;;;;;36.13;25.33;;;13.70;99.90;;;;;;5067065;28;20761;-39
2021/05/20 09:35:29;;;;;;;35.80;23.80;;;13.80;99.90;;;;;;5067224;28;20438;-38
2021/05/20 09:37:57;;;;;;;33.77;22.80;;;13.70;99.90;;;;;;5067810;28;20422;-38
2021/05/20 09:40:35;;;;;;;33.73;25.47;;;13.60;99.90;;;;;;5066740;28;20422;-38
2021/05/20 09:43:12;;;;;;;35.60;24.40;;;13.60;99.90;;;;;;5058463;28;20920;-38
2021/05/20 09:45:38;;;;;;;36.33;24.57;;;13.60;99.90;;;;;;5065874;28;20525;-38
2021/05/20 09:48:06;;;;;;;32.33;24.10;;;13.60;99.90;;;;;;5067354;28;20455;-38
2021/05/20 09:50:36;;;;;;;34.23;24.50;;;13.60;99.90;;;;;;5065885;28;20352;-39
2021/05/20 09:53:07;;;;;;;30.30;23.77;;;13.70;99.90;;;;;;5065354;28;20424;-38
2021/05/20 09:55:32;;;;;;;29.13;22.70;;;13.80;99.90;;;;;;5066475;28;20754;-39
2021/05/20 09:58:09;;;;;;;34.40;24.00;;;13.90;99.90;;;;;;5064454;28;20438;-38
2021/05/20 10:00:36;;;;;;;35.40;25.20;;;14.00;99.90;;;;;;5065962;28;20227;-38
2021/05/20 10:03:08;;;;;;;34.10;25.70;;;14.00;99.90;;;;;;5066848;28;20431;-38
2021/05/20 10:05:41;;;;;;;34.10;24.57;;;14.00;99.90;;;;;;5066844;28;20431;-38
2021/05/20 10:08:12;;;;;;;32.10;24.37;;;14.10;99.90;;;;;;5066359;28;20884;-38
2021/05/20 10:10:40;;;;;;;33.93;24.50;;;14.20;99.90;;;;;;5066034;28;20852;-39
2021/05/20 10:13:15;;;;;;;32.27;21.90;;;14.30;99.90;;;;;;5053797;28;20428;-38
2021/05/20 10:15:42;;;;;;;29.70;22.80;;;14.50;99.90;;;;;;5066207;28;20415;-38
2021/05/20 10:18:17;;;;;;;26.10;20.50;;;14.70;99.90;;;;;;5066992;28;20918;-39
2021/05/20 10:20:44;;;;;;;24.07;19.03;;;14.80;99.90;;;;;;5065782;28;20866;-38
2021/05/20 10:23:12;;;;;;;26.03;19.63;;;14.90;99.90;;;;;;5066658;28;20416;-39
2021/05/20 10:25:39;;;;;;;24.67;20.77;;;15.00;99.90;;;;;;5066566;28;20427;-39
2021/05/20 10:28:10;;;;;;;26.33;20.27;;;15.00;99.90;;;;;;5056121;28;20482;-39
2021/05/20 10:30:38;;;;;;;25.97;20.37;;;15.20;99.90;;;;;;5064702;28;20427;-38
2021/05/20 10:33:04;;;;;;;25.50;19.63;;;15.00;99.90;;;;;;5071099;28;20434;-38
2021/05/20 10:35:43;;;;;;;24.97;19.20;;;15.00;99.90;;;;;;5083556;28;20464;-38
2021/05/20 10:38:11;;;;;;;25.33;19.70;;;15.00;99.90;;;;;;5086257;28;20453;-38
2021/05/20 10:40:36;;;;;;;23.77;19.13;;;14.90;99.90;;;;;;5086019;28;20418;-38
2021/05/20 10:43:13;;;;;;;24.33;17.80;;;15.10;99.90;;;;;;5068235;28;20455;-38
2021/05/20 10:45:59;;;;;;;24.03;16.20;;;15.20;99.90;;;;;;5066573;28;20188;-38
2021/05/20 10:48:26;;;;;;;20.73;16.47;;;15.40;99.90;;;;;;5078895;28;20989;-39
2021/05/20 10:50:52;;;;;;;19.00;15.33;;;15.70;99.90;;;;;;5081326;28;20419;-38
2021/05/20 10:53:46;;;;;;;17.90;14.90;;;15.90;99.90;;;;;;5078106;28;20936;-39
2021/05/20 10:56:12;;;;;;;18.63;15.77;;;15.90;99.90;;;;;;5086347;28;20422;-39
2021/05/20 10:58:38;;;;;;;14.30;12.80;;;16.10;99.90;;;;;;5061596;28;20443;-39
2021/05/20 11:01:05;;;;;;;16.60;14.10;;;16.20;99.90;;;;;;5066049;28;20180;-38
2021/05/20 11:03:46;;;;;;;19.20;15.67;;;16.20;99.90;;;;;;5083186;28;20434;-38
2021/05/20 11:06:15;;;;;;;16.20;14.60;;;16.10;99.90;;;;;;5084752;28;20490;-38
2021/05/20 11:08:47;;;;;;;14.90;13.20;;;16.10;99.90;;;;;;5069195;28;20467;-38
2021/05/20 11:11:31;;;;;;;15.60;13.90;;;16.10;99.90;;;;;;5070321;28;20419;-39
2021/05/20 11:14:02;;;;;;;14.93;13.33;;;16.20;99.90;;;;;;5060504;28;20434;-38
2021/05/20 11:16:29;;;;;;;13.47;11.67;;;16.10;99.90;;;;;;5069900;28;20435;-38
2021/05/20 11:21:55;;;;;;;11.70;10.10;;;15.90;99.90;;;;;;5069539;28;21008;-38
2021/05/20 11:24:28;;;;;;;11.27;10.17;;;15.80;99.90;;;;;;5069701;28;20418;-38
2021/05/20 11:26:55;;;;;;;12.50;11.20;;;15.80;99.90;;;;;;5069994;28;20773;-38
2021/05/20 11:29:31;;;;;;;14.37;12.87;;;15.70;99.90;;;;;;5054683;28;20463;-38
2021/05/20 11:32:15;;;;;;;12.50;11.20;;;15.70;99.90;;;;;;5063070;28;20446;-38
2021/05/20 11:37:07;;;;;;;9.67;8.77;;;16.20;99.90;;;;;;5070217;28;20434;-39
2021/05/20 11:39:33;;;;;;;9.03;7.63;;;16.30;99.90;;;;;;5067484;28;20185;-38
2021/05/20 11:42:01;;;;;;;8.37;7.67;;;16.40;99.90;;;;;;5069616;28;20969;-38
2021/05/20 11:44:27;;;;;;;8.60;7.80;;;16.50;99.90;;;;;;5059781;28;20504;-39
2021/05/20 11:47:07;;;;;;;7.80;7.10;;;16.50;99.90;;;;;;5072035;28;20449;-39
2021/05/20 11:49:34;;;;;;;6.80;6.03;;;16.70;99.70;;;;;;5072790;28;21005;-38
2021/05/20 11:52:07;;;;;;;7.10;6.40;;;16.80;97.80;;;;;;5076604;28;20429;-39
2021/05/20 11:54:38;;;;;;;8.77;7.97;;;16.80;97.80;;;;;;5077944;28;20458;-38
2021/05/20 11:57:07;;;;;;;8.47;7.77;;;16.90;98.30;;;;;;5069144;28;20447;-38
2021/05/20 11:59:37;;;;;;;10.43;8.60;;;17.00;99.20;;;;;;5055734;28;20916;-39
2021/05/20 12:02:09;;;;;;;8.43;7.63;;;17.10;98.40;;;;;;5070475;28;20806;-39
2021/05/20 12:04:36;;;;;;;10.07;7.23;;;17.10;98.50;;;;;;5081497;28;20478;-38
2021/05/20 12:07:03;;;;;;;9.60;7.50;;;17.00;99.50;;;;;;5086725;28;20997;-39
2021/05/20 12:09:29;;;;;;;7.17;6.47;;;17.20;99.60;;;;;;5087347;28;20506;-38
2021/05/20 12:11:54;;;;;;;8.47;6.93;;;17.40;99.80;;;;;;5104707;28;20458;-39
2021/05/20 12:14:26;;;;;;;7.77;7.07;;;17.40;97.10;;;;;;5072035;28;20439;-38
2021/05/20 12:17:01;;;;;;;7.50;6.80;;;17.50;97.70;;;;;;5069485;28;20411;-38
2021/05/20 12:19:31;;;;;;;7.83;7.13;;;17.60;97.50;;;;;;5068412;28;21355;-38
2021/05/20 12:22:11;;;;;;;6.17;5.67;;;17.60;96.90;;;;;;5063985;28;20963;-38
2021/05/20 12:24:49;;;;;;;9.60;5.80;;;17.60;96.50;;;;;;5065036;28;20437;-39
2021/05/20 12:27:16;;;;;;;6.47;5.87;;;17.60;96.20;;;;;;5067494;28;20427;-39
2021/05/20 12:29:54;;;;;;;6.60;6.00;;;17.70;95.70;;;;;;5059017;28;20546;-39
2021/05/20 12:32:27;;;;;;;6.43;5.90;;;17.80;96.00;;;;;;5068181;28;20423;-39
2021/05/20 12:35:22;;;;;;;7.07;6.47;;;17.90;96.70;;;;;;5067338;28;20440;-39
2021/05/20 12:38:08;;;;;;;5.73;5.33;;;18.10;95.90;;;;;;5068294;28;20423;-39
2021/05/20 12:40:35;;;;;;;5.73;5.23;;;18.10;95.00;;;;;;5068221;28;20415;-38
2021/05/20 12:43:10;;;;;;;6.93;6.33;;;18.20;94.10;;;;;;5067535;28;20497;-39
2021/05/20 12:45:41;;;;;;;5.73;5.13;;;18.10;93.40;;;;;;5062235;28;20514;-38
2021/05/20 12:48:30;;;;;;;6.70;6.07;;;18.10;94.80;;;;;;5068031;28;20455;-38